createdAt,value
2023-04-15T00:00:01.741Z,16.20
2023-04-15T00:02:28.491Z,16.18
2023-04-15T00:04:55.006Z,16.15
2023-04-15T00:07:21.533Z,16.14
2023-04-15T00:09:47.840Z,16.11
2023-04-15T00:12:14.215Z,16.10
2023-04-15T00:14:40.690Z,16.10
2023-04-15T00:17:06.982Z,16.11
2023-04-15T00:19:33.358Z,16.09
2023-04-15T00:21:59.731Z,16.07
2023-04-15T00:24:26.028Z,16.03
2023-04-15T00:26:52.487Z,15.97
2023-04-15T00:29:18.928Z,15.96
2023-04-15T00:31:45.553Z,15.97
2023-04-15T00:34:11.936Z,15.91
2023-04-15T00:36:38.254Z,15.89
2023-04-15T00:39:04.632Z,15.87
2023-04-15T00:41:31.093Z,15.85
2023-04-15T00:43:57.403Z,15.82
2023-04-15T00:46:23.740Z,15.78
2023-04-15T00:48:50.168Z,15.78
2023-04-15T00:51:16.556Z,15.74
2023-04-15T00:53:42.897Z,15.73
2023-04-15T00:56:09.263Z,15.70
2023-04-15T00:58:35.614Z,15.64
2023-04-15T01:01:01.973Z,15.59
2023-04-15T01:03:29.454Z,15.59
2023-04-15T01:05:55.885Z,15.57
2023-04-15T01:08:22.501Z,15.53
2023-04-15T01:10:48.946Z,15.51
2023-04-15T01:13:15.256Z,15.51
2023-04-15T01:15:41.592Z,15.48
2023-04-15T01:18:07.974Z,15.45
2023-04-15T01:20:37.184Z,15.43
2023-04-15T01:23:03.517Z,15.41
2023-04-15T01:25:29.950Z,15.37
2023-04-15T01:27:56.307Z,15.35
2023-04-15T01:30:22.645Z,15.32
2023-04-15T01:32:49.067Z,15.31
2023-04-15T01:35:15.415Z,15.28
2023-04-15T01:37:41.733Z,15.26
2023-04-15T01:40:08.581Z,15.22
2023-04-15T01:42:35.708Z,15.20
2023-04-15T01:45:02.024Z,15.18
2023-04-15T01:47:28.422Z,15.17
2023-04-15T01:49:54.782Z,15.14
2023-04-15T01:52:21.742Z,15.11
2023-04-15T01:54:48.161Z,15.08
2023-04-15T01:57:14.516Z,15.07
2023-04-15T01:59:40.849Z,15.01
2023-04-15T02:02:07.256Z,14.98
2023-04-15T02:04:33.617Z,14.96
2023-04-15T02:06:59.940Z,14.93
2023-04-15T02:09:26.331Z,14.90
2023-04-15T02:11:52.665Z,14.91
2023-04-15T02:14:19.002Z,14.90
2023-04-15T02:16:46.626Z,14.90
2023-04-15T02:19:15.565Z,14.87
2023-04-15T02:21:41.923Z,14.88
2023-04-15T02:24:08.279Z,14.89
2023-04-15T02:26:34.618Z,14.86
2023-04-15T02:29:01.421Z,14.84
2023-04-15T02:31:28.137Z,14.83
2023-04-15T02:33:54.626Z,14.82
2023-04-15T02:36:20.974Z,14.79
2023-04-15T02:38:47.325Z,14.79
2023-04-15T02:41:15.042Z,14.76
2023-04-15T02:43:42.151Z,14.76
2023-04-15T02:46:09.298Z,14.73
2023-04-15T02:48:35.646Z,14.74
2023-04-15T02:51:03.262Z,14.72
2023-04-15T02:53:29.638Z,14.70
2023-04-15T02:55:55.971Z,14.67
2023-04-15T02:58:22.303Z,14.62
2023-04-15T03:00:48.712Z,14.57
2023-04-15T03:03:15.242Z,14.55
2023-04-15T03:05:41.714Z,14.52
2023-04-15T03:08:08.145Z,14.49
2023-04-15T03:10:34.482Z,14.47
2023-04-15T03:13:01.522Z,14.45
2023-04-15T03:15:27.971Z,14.44
2023-04-15T03:17:54.756Z,14.40
2023-04-15T03:20:21.173Z,14.38
2023-04-15T03:22:48.416Z,14.36
2023-04-15T03:25:14.999Z,14.34
2023-04-15T03:27:42.382Z,14.31
2023-04-15T03:30:08.770Z,14.28
2023-04-15T03:32:37.103Z,14.26
2023-04-15T03:35:05.762Z,14.24
2023-04-15T03:37:32.129Z,14.21
2023-04-15T03:39:58.438Z,14.17
2023-04-15T03:42:24.758Z,14.14
2023-04-15T03:44:51.104Z,14.11
2023-04-15T03:47:17.545Z,14.09
2023-04-15T03:49:43.874Z,14.07
2023-04-15T03:52:10.228Z,14.03
2023-04-15T03:54:36.582Z,13.99
2023-04-15T03:57:02.960Z,13.98
2023-04-15T03:59:29.324Z,13.97
2023-04-15T04:01:55.742Z,13.94
2023-04-15T04:04:22.217Z,13.92
2023-04-15T04:06:48.664Z,13.88
2023-04-15T04:09:14.980Z,13.86
2023-04-15T04:11:41.305Z,13.85
2023-04-15T04:14:07.668Z,13.80
2023-04-15T04:16:34.001Z,13.79
2023-04-15T04:19:00.601Z,13.77
2023-04-15T04:21:27.077Z,13.74
2023-04-15T04:23:53.398Z,13.73
2023-04-15T04:26:19.826Z,13.72
2023-04-15T04:28:46.251Z,13.68
2023-04-15T04:31:12.562Z,13.67
2023-04-15T04:33:38.893Z,13.63
2023-04-15T04:36:05.268Z,13.63
2023-04-15T04:38:31.566Z,13.60
2023-04-15T04:40:57.933Z,13.56
2023-04-15T04:43:24.495Z,13.55
2023-04-15T04:45:50.881Z,13.53
2023-04-15T04:48:17.224Z,13.51
2023-04-15T04:50:43.581Z,13.51
2023-04-15T04:53:09.898Z,13.46
2023-04-15T04:55:36.198Z,13.47
2023-04-15T04:58:02.572Z,13.46
2023-04-15T05:00:28.960Z,13.45
2023-04-15T05:02:55.629Z,13.44
2023-04-15T05:05:22.141Z,13.43
2023-04-15T05:07:48.457Z,13.43
2023-04-15T05:10:14.909Z,13.41
2023-04-15T05:12:41.341Z,13.40
2023-04-15T05:15:07.655Z,13.39
2023-04-15T05:17:34.013Z,13.12
2023-04-15T05:20:00.455Z,13.29
2023-04-15T05:22:26.804Z,13.35
2023-04-15T05:24:53.130Z,13.36
2023-04-15T05:27:19.512Z,13.36
2023-04-15T05:29:45.844Z,13.36
2023-04-15T05:32:12.273Z,13.37
2023-04-15T05:34:38.644Z,13.37
2023-04-15T05:37:04.975Z,13.36
2023-04-15T05:39:31.301Z,13.36
2023-04-15T05:41:57.690Z,13.34
2023-04-15T05:44:24.013Z,13.33
2023-04-15T05:46:50.321Z,13.32
2023-04-15T05:49:16.741Z,13.29
2023-04-15T05:51:43.051Z,13.29
2023-04-15T05:54:09.344Z,13.29
2023-04-15T05:56:35.767Z,13.28
2023-04-15T05:59:02.357Z,13.28
2023-04-15T06:01:28.846Z,13.27
2023-04-15T06:03:55.422Z,13.27
2023-04-15T06:06:21.852Z,13.27
2023-04-15T06:08:48.194Z,13.24
2023-04-15T06:11:14.560Z,13.23
2023-04-15T06:13:40.864Z,13.20
2023-04-15T06:16:07.241Z,13.18
2023-04-15T06:18:33.645Z,13.18
2023-04-15T06:21:00.047Z,13.17
2023-04-15T06:23:27.944Z,13.17
2023-04-15T06:25:54.449Z,13.16
2023-04-15T06:28:20.767Z,13.20
2023-04-15T06:30:47.104Z,13.24
2023-04-15T06:33:13.462Z,13.27
2023-04-15T06:35:39.778Z,13.31
2023-04-15T06:38:06.078Z,13.33
2023-04-15T06:40:32.444Z,13.34
2023-04-15T06:42:58.793Z,13.39
2023-04-15T06:45:25.146Z,13.40
2023-04-15T06:47:51.561Z,13.43
2023-04-15T06:50:17.902Z,13.45
2023-04-15T06:52:44.273Z,13.48
2023-04-15T06:55:10.664Z,13.48
2023-04-15T06:57:36.995Z,13.52
2023-04-15T07:00:03.329Z,13.57
2023-04-15T07:02:31.104Z,13.60
2023-04-15T07:04:57.509Z,13.64
2023-04-15T07:07:23.848Z,13.66
2023-04-15T07:09:50.235Z,13.72
2023-04-15T07:12:16.560Z,13.77
2023-04-15T07:14:42.861Z,13.83
2023-04-15T07:17:09.329Z,13.87
2023-04-15T07:19:35.780Z,13.93
2023-04-15T07:22:02.125Z,13.96
2023-04-15T07:24:28.490Z,14.01
2023-04-15T07:26:54.806Z,14.07
2023-04-15T07:29:21.140Z,14.13
2023-04-15T07:31:47.576Z,14.17
2023-04-15T07:34:13.955Z,14.24
2023-04-15T07:36:40.296Z,14.27
2023-04-15T07:39:06.712Z,14.31
2023-04-15T07:41:33.024Z,14.36
2023-04-15T07:43:59.396Z,14.40
2023-04-15T07:46:25.816Z,14.44
2023-04-15T07:48:52.216Z,14.47
2023-04-15T07:51:18.566Z,14.53
2023-04-15T07:53:44.925Z,14.59
2023-04-15T07:56:11.282Z,14.63
2023-04-15T07:58:37.615Z,14.67
2023-04-15T08:01:03.997Z,14.73
2023-04-15T08:03:30.525Z,14.76
2023-04-15T08:05:57.016Z,14.80
2023-04-15T08:08:23.389Z,14.86
2023-04-15T08:10:52.025Z,14.91
2023-04-15T08:13:18.876Z,14.94
2023-04-15T08:15:45.329Z,14.96
2023-04-15T08:18:11.659Z,15.00
2023-04-15T08:20:38.141Z,15.05
2023-04-15T08:23:04.512Z,15.09
2023-04-15T08:25:30.931Z,15.16
2023-04-15T08:27:57.320Z,15.22
2023-04-15T08:30:23.682Z,15.29
2023-04-15T08:32:50.094Z,15.32
2023-04-15T08:35:16.501Z,15.34
2023-04-15T08:37:42.912Z,15.39
2023-04-15T08:40:09.297Z,15.46
2023-04-15T08:42:35.709Z,15.52
2023-04-15T08:45:02.156Z,15.57
2023-04-15T08:47:28.613Z,15.61
2023-04-15T08:49:55.038Z,15.66
2023-04-15T08:52:21.411Z,15.73
2023-04-15T08:54:47.824Z,15.78
2023-04-15T08:57:14.220Z,15.82
2023-04-15T08:59:40.610Z,15.87
2023-04-15T09:02:07.014Z,15.92
2023-04-15T09:04:33.434Z,15.97
2023-04-15T09:06:59.787Z,16.01
2023-04-15T09:09:26.095Z,16.07
2023-04-15T09:11:52.497Z,16.09
2023-04-15T09:14:18.910Z,16.11
2023-04-15T09:16:45.277Z,16.18
2023-04-15T09:19:11.746Z,16.23
2023-04-15T09:21:38.083Z,16.28
2023-04-15T09:24:04.539Z,16.34
2023-04-15T09:26:31.114Z,16.35
2023-04-15T09:28:57.544Z,16.38
2023-04-15T09:31:23.980Z,16.42
2023-04-15T09:33:50.426Z,16.45
2023-04-15T09:36:16.793Z,16.52
2023-04-15T09:38:43.119Z,16.59
2023-04-15T09:41:09.456Z,16.65
2023-04-15T09:43:35.833Z,16.70
2023-04-15T09:46:02.194Z,16.74
2023-04-15T09:48:28.548Z,16.81
2023-04-15T09:50:54.920Z,16.85
2023-04-15T09:53:21.241Z,16.94
2023-04-15T09:55:47.543Z,16.99
2023-04-15T09:58:13.921Z,17.05
2023-04-15T10:00:40.253Z,17.12
2023-04-15T10:03:06.669Z,17.17
2023-04-15T10:05:33.190Z,17.23
2023-04-15T10:07:59.496Z,17.28
2023-04-15T10:10:25.788Z,17.33
2023-04-15T10:12:52.140Z,17.39
2023-04-15T10:15:18.449Z,17.44
2023-04-15T10:17:44.849Z,17.45
2023-04-15T10:20:11.252Z,17.42
2023-04-15T10:22:37.586Z,17.47
2023-04-15T10:25:03.995Z,17.48
2023-04-15T10:27:30.392Z,17.52
2023-04-15T10:29:56.743Z,17.56
2023-04-15T10:32:23.141Z,17.58
2023-04-15T10:34:49.529Z,17.62
2023-04-15T10:37:15.855Z,17.65
2023-04-15T10:39:42.197Z,17.67
2023-04-15T10:42:08.598Z,17.73
2023-04-15T10:44:34.932Z,17.74
2023-04-15T10:47:01.296Z,17.76
2023-04-15T10:49:27.676Z,17.79
2023-04-15T10:51:54.005Z,17.86
2023-04-15T10:54:20.346Z,17.88
2023-04-15T10:56:46.707Z,17.92
2023-04-15T10:59:13.055Z,17.91
2023-04-15T11:01:39.401Z,17.94
2023-04-15T11:04:06.037Z,17.97
2023-04-15T11:06:32.617Z,17.98
2023-04-15T11:08:58.978Z,17.99
2023-04-15T11:11:25.368Z,18.06
2023-04-15T11:13:51.774Z,18.06
2023-04-15T11:16:19.330Z,18.09
2023-04-15T11:18:45.726Z,18.11
2023-04-15T11:21:12.041Z,18.11
2023-04-15T11:23:38.362Z,18.16
2023-04-15T11:26:04.754Z,18.17
2023-04-15T11:28:31.164Z,18.22
2023-04-15T11:30:57.486Z,18.25
2023-04-15T11:33:23.856Z,18.29
2023-04-15T11:35:50.206Z,18.33
2023-04-15T11:38:16.527Z,18.36
2023-04-15T11:40:45.274Z,18.40
2023-04-15T11:43:13.224Z,18.44
2023-04-15T11:45:39.622Z,18.44
2023-04-15T11:48:06.008Z,18.49
2023-04-15T11:50:32.341Z,18.54
2023-04-15T11:52:58.704Z,18.58
2023-04-15T11:55:25.078Z,18.62
2023-04-15T11:57:51.417Z,18.67
2023-04-15T12:00:17.748Z,18.69
2023-04-15T12:02:44.265Z,18.72
2023-04-15T12:05:10.766Z,18.72
2023-04-15T12:07:37.156Z,18.77
2023-04-15T12:10:05.790Z,18.81
2023-04-15T12:12:33.331Z,18.83
2023-04-15T12:14:59.681Z,18.89
2023-04-15T12:17:26.103Z,18.94
2023-04-15T12:19:52.413Z,18.97
2023-04-15T12:22:18.729Z,19.01
2023-04-15T12:24:45.109Z,19.06
2023-04-15T12:27:11.447Z,19.12
2023-04-15T12:29:37.793Z,19.16
2023-04-15T12:32:04.169Z,19.20
2023-04-15T12:34:30.532Z,19.23
2023-04-15T12:36:56.872Z,19.28
2023-04-15T12:39:23.376Z,19.30
2023-04-15T12:41:49.694Z,19.33
2023-04-15T12:44:16.015Z,19.35
2023-04-15T12:46:42.388Z,19.39
2023-04-15T12:49:08.736Z,19.44
2023-04-15T12:51:35.064Z,19.46
2023-04-15T12:54:01.523Z,19.49
2023-04-15T12:56:27.969Z,19.51
2023-04-15T12:58:54.326Z,19.53
2023-04-15T13:01:20.734Z,19.57
2023-04-15T13:03:47.252Z,19.61
2023-04-15T13:06:13.688Z,19.64
2023-04-15T13:08:42.641Z,19.68
2023-04-15T13:11:14.443Z,19.72
2023-04-15T13:13:40.815Z,19.76
2023-04-15T13:16:07.133Z,19.81
2023-04-15T13:18:33.457Z,19.84
2023-04-15T13:20:59.914Z,19.88
2023-04-15T13:23:26.274Z,19.95
2023-04-15T13:25:52.567Z,19.97
2023-04-15T13:28:18.926Z,20.00
2023-04-15T13:30:45.284Z,20.07
2023-04-15T13:33:11.594Z,20.09
2023-04-15T13:35:37.960Z,20.11
2023-04-15T13:38:04.286Z,20.14
2023-04-15T13:40:30.633Z,20.16
2023-04-15T13:42:56.983Z,20.18
2023-04-15T13:45:23.335Z,20.20
2023-04-15T13:47:49.687Z,20.24
2023-04-15T13:50:16.098Z,20.28
2023-04-15T13:52:42.432Z,20.33
2023-04-15T13:55:19.600Z,20.34
2023-04-15T13:57:48.269Z,20.37
2023-04-15T14:00:14.596Z,20.39
2023-04-15T14:02:41.062Z,20.43
2023-04-15T14:05:07.542Z,20.46
2023-04-15T14:07:33.943Z,20.51
2023-04-15T14:10:00.253Z,20.53
2023-04-15T14:12:26.614Z,20.53
2023-04-15T14:14:53.095Z,20.57
2023-04-15T14:17:19.390Z,20.60
2023-04-15T14:19:45.763Z,20.62
2023-04-15T14:22:12.104Z,20.63
2023-04-15T14:24:38.442Z,20.66
2023-04-15T14:27:04.817Z,20.71
2023-04-15T14:29:31.148Z,20.73
2023-04-15T14:32:11.285Z,20.76
2023-04-15T14:34:39.045Z,20.82
2023-04-15T14:37:05.457Z,20.86
2023-04-15T14:39:31.774Z,20.91
2023-04-15T14:41:58.110Z,20.95
2023-04-15T14:44:24.509Z,21.00
2023-04-15T14:46:50.820Z,21.05
2023-04-15T14:49:17.178Z,21.08
2023-04-15T14:51:43.642Z,21.08
2023-04-15T14:54:10.013Z,21.11
2023-04-15T14:56:36.458Z,21.12
2023-04-15T14:59:03.040Z,21.13
2023-04-15T15:01:29.641Z,21.12
2023-04-15T15:03:56.042Z,21.12
2023-04-15T15:06:22.417Z,21.11
2023-04-15T15:08:48.754Z,21.10
2023-04-15T15:11:15.111Z,21.08
2023-04-15T15:13:41.462Z,21.10
2023-04-15T15:16:07.833Z,21.07
2023-04-15T15:18:34.305Z,21.07
2023-04-15T15:21:00.790Z,21.09
2023-04-15T15:23:27.154Z,21.09
2023-04-15T15:25:53.520Z,21.08
2023-04-15T15:28:19.845Z,21.06
2023-04-15T15:30:46.196Z,21.05
2023-04-15T15:33:12.547Z,21.05
2023-04-15T15:35:38.853Z,21.02
2023-04-15T15:38:05.209Z,21.00
2023-04-15T15:40:31.640Z,20.97
2023-04-15T15:42:58.062Z,21.00
2023-04-15T15:45:24.389Z,20.97
2023-04-15T15:47:50.799Z,20.99
2023-04-15T15:50:17.156Z,20.97
2023-04-15T15:52:43.506Z,20.98
2023-04-15T15:55:09.861Z,20.98
2023-04-15T15:57:36.244Z,20.95
2023-04-15T16:00:11.170Z,20.97
2023-04-15T16:05:08.381Z,20.97
2023-04-15T16:07:34.690Z,20.98
2023-04-15T16:10:01.071Z,20.98
2023-04-15T16:12:27.419Z,20.97
2023-04-15T16:14:53.727Z,20.95
2023-04-15T16:17:20.127Z,20.96
2023-04-15T16:19:58.743Z,20.96
2023-04-15T16:22:26.979Z,20.95
2023-04-15T16:24:53.310Z,20.96
2023-04-15T16:27:19.641Z,20.94
2023-04-15T16:29:46.014Z,20.94
2023-04-15T16:32:12.375Z,20.97
2023-04-15T16:34:38.793Z,20.95
2023-04-15T16:37:05.150Z,20.94
2023-04-15T16:39:31.490Z,20.97
2023-04-15T16:41:57.832Z,20.99
2023-04-15T16:44:24.253Z,20.98
2023-04-15T16:46:50.592Z,20.99
2023-04-15T16:49:16.964Z,20.98
2023-04-15T16:51:43.332Z,21.02
2023-04-15T16:54:09.667Z,21.03
2023-04-15T16:56:36.006Z,21.03
2023-04-15T16:59:02.615Z,21.05
2023-04-15T17:01:29.190Z,21.02
2023-04-15T17:03:56.249Z,21.04
2023-04-15T17:06:22.767Z,21.03
2023-04-15T17:08:49.101Z,20.99
2023-04-15T17:11:15.404Z,21.01
2023-04-15T17:13:41.765Z,21.02
2023-04-15T17:16:08.139Z,21.02
2023-04-15T17:18:34.495Z,21.00
2023-04-15T17:21:00.873Z,20.96
2023-04-15T17:23:27.176Z,20.94
2023-04-15T17:25:53.477Z,20.93
2023-04-15T17:28:19.835Z,20.93
2023-04-15T17:30:46.200Z,20.90
2023-04-15T17:33:26.179Z,20.86
2023-04-15T17:35:58.925Z,20.85
2023-04-15T17:38:25.249Z,20.83
2023-04-15T17:40:51.569Z,20.80
2023-04-15T17:43:17.928Z,20.78
2023-04-15T17:45:44.241Z,20.77
2023-04-15T17:48:10.621Z,20.74
2023-04-15T17:50:37.014Z,20.65
2023-04-15T17:53:03.333Z,20.68
2023-04-15T17:55:29.648Z,20.64
2023-04-15T17:57:56.122Z,20.64
2023-04-15T18:00:22.462Z,20.61
2023-04-15T18:02:49.070Z,20.57
2023-04-15T18:05:15.794Z,20.56
2023-04-15T18:07:42.158Z,20.51
2023-04-15T18:10:08.558Z,20.49
2023-04-15T18:12:34.988Z,20.44
2023-04-15T18:15:01.344Z,20.42
2023-04-15T18:17:27.749Z,20.37
2023-04-15T18:19:54.137Z,20.32
2023-04-15T18:22:20.454Z,20.28
2023-04-15T18:24:46.759Z,20.23
2023-04-15T18:27:13.102Z,20.20
2023-04-15T18:29:39.466Z,20.15
2023-04-15T18:32:05.839Z,20.07
2023-04-15T18:34:32.251Z,20.07
2023-04-15T18:36:58.568Z,20.04
2023-04-15T18:39:24.877Z,20.02
2023-04-15T18:41:51.255Z,19.98
2023-04-15T18:44:17.578Z,19.96
2023-04-15T18:46:43.914Z,19.96
2023-04-15T18:49:10.271Z,19.93
2023-04-15T18:51:36.591Z,19.89
2023-04-15T18:54:02.932Z,19.88
2023-04-15T18:56:29.450Z,19.85
2023-04-15T18:59:27.105Z,19.86
2023-04-15T19:01:42.144Z,19.83
2023-04-15T19:04:08.573Z,19.81
2023-04-15T19:06:34.944Z,19.78
2023-04-15T19:09:01.562Z,19.72
2023-04-15T19:11:27.962Z,19.75
2023-04-15T19:13:54.285Z,19.67
2023-04-15T19:16:20.694Z,19.68
2023-04-15T19:18:47.049Z,19.67
2023-04-15T19:21:13.402Z,19.61
2023-04-15T19:23:39.780Z,19.62
2023-04-15T19:26:06.105Z,19.61
2023-04-15T19:28:32.457Z,19.59
2023-04-15T19:30:58.915Z,19.57
2023-04-15T19:33:25.270Z,19.54
2023-04-15T19:35:51.587Z,19.47
2023-04-15T19:38:17.940Z,19.46
2023-04-15T19:40:44.266Z,19.41
2023-04-15T19:43:10.581Z,19.38
2023-04-15T19:45:36.950Z,19.34
2023-04-15T19:48:03.365Z,19.33
2023-04-15T19:50:29.748Z,19.30
2023-04-15T19:52:56.138Z,19.25
2023-04-15T19:55:22.506Z,19.24
2023-04-15T19:57:48.855Z,19.22
2023-04-15T20:00:15.222Z,19.14
2023-04-15T20:02:41.645Z,19.12
2023-04-15T20:05:08.026Z,19.12
2023-04-15T20:07:34.385Z,19.06
2023-04-15T20:10:00.702Z,19.04
2023-04-15T20:12:50.016Z,19.00
2023-04-15T20:15:13.372Z,19.00
2023-04-15T20:17:39.757Z,18.92
2023-04-15T20:20:06.137Z,18.92
2023-04-15T20:22:32.512Z,18.87
2023-04-15T20:24:58.827Z,18.89
2023-04-15T20:27:25.145Z,18.89
2023-04-15T20:29:51.519Z,18.86
2023-04-15T20:32:17.889Z,18.83
2023-04-15T20:34:44.287Z,18.82
2023-04-15T20:37:10.642Z,18.78
2023-04-15T20:39:37.022Z,18.74
2023-04-15T20:42:03.414Z,18.69
2023-04-15T20:44:29.790Z,18.69
2023-04-15T20:46:56.150Z,18.67
2023-04-15T20:49:22.502Z,18.64
2023-04-15T20:51:48.866Z,18.62
2023-04-15T20:54:15.190Z,18.58
2023-04-15T20:56:41.560Z,18.56
2023-04-15T20:59:07.945Z,18.53
2023-04-15T21:01:34.317Z,18.48
2023-04-15T21:04:00.785Z,18.44
2023-04-15T21:06:27.172Z,18.39
2023-04-15T21:08:53.492Z,18.36
2023-04-15T21:11:38.798Z,18.34
2023-04-15T21:14:06.150Z,18.32
2023-04-15T21:16:32.565Z,18.29
2023-04-15T21:18:58.995Z,18.29
2023-04-15T21:21:25.388Z,18.27
2023-04-15T21:23:51.703Z,18.27
2023-04-15T21:26:18.036Z,18.24
2023-04-15T21:28:44.498Z,18.23
2023-04-15T21:31:10.882Z,18.21
2023-04-15T21:33:37.210Z,18.19
2023-04-15T21:36:03.601Z,18.16
2023-04-15T21:38:29.925Z,18.12
2023-04-15T21:40:56.248Z,18.11
2023-04-15T21:43:22.640Z,18.10
2023-04-15T21:46:21.152Z,18.11
2023-04-15T21:48:35.335Z,18.08
2023-04-15T21:51:01.719Z,18.06
2023-04-15T21:53:28.071Z,18.01
2023-04-15T21:55:54.429Z,18.00
2023-04-15T21:58:20.752Z,18.00
2023-04-15T22:00:47.071Z,17.98
2023-04-15T22:03:13.592Z,17.95
2023-04-15T22:05:40.078Z,17.92
2023-04-15T22:08:06.395Z,17.90
2023-04-15T22:10:32.773Z,17.87
2023-04-15T22:12:59.131Z,17.85
2023-04-15T22:15:25.443Z,17.82
2023-04-15T22:17:51.866Z,17.82
2023-04-15T22:20:18.248Z,17.80
2023-04-15T22:22:44.918Z,17.78
2023-04-15T22:25:11.347Z,17.76
2023-04-15T22:27:37.702Z,17.72
2023-04-15T22:30:04.036Z,17.72
2023-04-15T22:32:30.450Z,17.63
2023-04-15T22:34:56.793Z,17.61
2023-04-15T22:37:23.102Z,17.58
2023-04-15T22:39:49.476Z,17.54
2023-04-15T22:42:15.837Z,17.52
2023-04-15T22:44:42.145Z,17.47
2023-04-15T22:47:08.532Z,17.42
2023-04-15T22:49:34.860Z,17.42
2023-04-15T22:52:01.181Z,17.40
2023-04-15T22:54:27.558Z,17.37
2023-04-15T22:56:53.882Z,17.36
2023-04-15T22:59:20.172Z,17.34
2023-04-15T23:01:46.629Z,17.30
2023-04-15T23:04:23.451Z,17.29
2023-04-15T23:06:53.178Z,17.25
2023-04-15T23:09:19.496Z,17.22
2023-04-15T23:11:45.841Z,17.18
2023-04-15T23:14:12.207Z,17.17
2023-04-15T23:16:38.681Z,17.15
2023-04-15T23:19:05.240Z,17.13
2023-04-15T23:21:31.679Z,17.09
2023-04-15T23:23:58.052Z,17.07
2023-04-15T23:26:24.383Z,17.05
2023-04-15T23:28:50.855Z,17.02
2023-04-15T23:31:17.291Z,16.99
2023-04-15T23:33:43.652Z,16.96
2023-04-15T23:36:10.022Z,16.95
2023-04-15T23:38:36.335Z,16.92
2023-04-15T23:41:02.659Z,16.92
2023-04-15T23:43:29.040Z,16.89
2023-04-15T23:45:55.368Z,16.87
2023-04-15T23:48:21.687Z,16.85
2023-04-15T23:50:48.053Z,16.81
2023-04-15T23:53:14.359Z,16.80
2023-04-15T23:55:40.669Z,16.75
2023-04-15T23:58:07.049Z,16.77
